LGMT/MJT METAR and TAF weather

Enter ICAO airport designator
Station Type Date Time Source
LGMT METAR 2020/07/05 02:50 UTC NOAA

LGMT 050250Z VRB03KT CAVOK 25/19 Q1007


Station Type Date Time Source
LGMT Decoded METAR 2020/07/05 02:50 UTC NOAA

Mytilini Airport , Greece (LGMT) 39-04N 026-36E 5M
Jul 04, 2020 - 10:50 PM EDT / 2020.07.05 0250 UTC
Wind: Variable at 3 MPH (3 KT):0
Visibility: greater than 7 mile(s):0
Temperature: 77 F (25 C)
Dew Point: 66 F (19 C)
Relative Humidity: 69%
Pressure (altimeter): 29.74 in. Hg (1007 hPa)
ob: LGMT 050250Z VRB03KT CAVOK 25/19 Q1007
cycle: 3

Station Type Date Time Source
LGMT TAF 2012/09/21 03:06 UTC NOAA

TAF LGMT 210200Z 2103/2115 VRB05KT 9999 SCT020
BECMG 2103/2105 30015KT PROB30
TEMPO 2103/2106 7000 RA SCT018 BKN030
BECMG 2107/2109 29012KT

Example: see airport list